Time;durP1;ratioP1;P1;durP2;ratioP2;P2;SDS_P1;SDS_P2;PMS_P1;PMS_P2;Temp;Humidity;BMP_temperature;BMP_pressure;BME280_temperature;BME280_humidity;BME280_pressure;Samples;Min_cycle;Max_cycle;Signal;HPM_P1;HPM_P2
2023/08/24 00:01:25;;;;;;;11.55;11.05;;;;;;;;;;5092685;28;20034;-62
2023/08/24 00:03:51;;;;;;;11.48;10.98;;;;;;;;;;5086259;28;20056;-62
2023/08/24 00:06:16;;;;;;;11.93;11.43;;;;;;;;;;5094545;28;20031;-63
2023/08/24 00:08:42;;;;;;;11.57;11.07;;;;;;;;;;5088233;28;20510;-62
2023/08/24 00:11:07;;;;;;;11.40;10.90;;;;;;;;;;5089688;28;20030;-63
2023/08/24 00:13:33;;;;;;;11.43;10.93;;;;;;;;;;5085905;28;20526;-61
2023/08/24 00:15:58;;;;;;;11.45;10.95;;;;;;;;;;5090696;28;20031;-62
2023/08/24 00:18:24;;;;;;;11.50;11.00;;;;;;;;;;5089549;28;20407;-63
2023/08/24 00:20:49;;;;;;;11.50;11.00;;;;;;;;;;5086137;28;20032;-62
2023/08/24 00:23:15;;;;;;;11.90;11.40;;;;;;;;;;5088594;28;20020;-63
2023/08/24 00:25:41;;;;;;;11.45;10.95;;;;;;;;;;5086950;28;20020;-62
2023/08/24 00:28:07;;;;;;;11.48;10.98;;;;;;;;;;5084884;28;20013;-62
2023/08/24 00:30:32;;;;;;;11.60;11.10;;;;;;;;;;5091002;28;20055;-62
2023/08/24 00:32:58;;;;;;;11.45;10.95;;;;;;;;;;5086160;28;20086;-63
2023/08/24 00:35:23;;;;;;;11.60;11.10;;;;;;;;;;5086343;28;20115;-62
2023/08/24 00:37:48;;;;;;;11.38;10.88;;;;;;;;;;5075386;28;20387;-63
2023/08/24 00:40:13;;;;;;;11.50;11.00;;;;;;;;;;5085844;28;20023;-62
2023/08/24 00:42:39;;;;;;;11.50;11.00;;;;;;;;;;5090268;28;20020;-62
2023/08/24 00:45:05;;;;;;;11.98;11.48;;;;;;;;;;5088539;28;20406;-62
2023/08/24 00:47:31;;;;;;;11.93;11.43;;;;;;;;;;5086588;28;20016;-62
2023/08/24 00:49:56;;;;;;;11.25;10.75;;;;;;;;;;5088108;28;20391;-62
2023/08/24 00:52:24;;;;;;;12.00;11.50;;;;;;;;;;5087939;28;20115;-62
2023/08/24 00:54:49;;;;;;;11.48;10.98;;;;;;;;;;5090598;28;20028;-63
2023/08/24 00:57:15;;;;;;;11.60;11.10;;;;;;;;;;5086162;28;20023;-62
2023/08/24 00:59:40;;;;;;;11.52;11.02;;;;;;;;;;5083340;28;20380;-62
2023/08/24 01:02:06;;;;;;;11.60;11.10;;;;;;;;;;5087891;28;20016;-62
2023/08/24 01:04:31;;;;;;;11.57;11.07;;;;;;;;;;5088795;28;20049;-62
2023/08/24 01:06:56;;;;;;;11.30;10.80;;;;;;;;;;5089989;28;20396;-63
2023/08/24 01:09:22;;;;;;;11.68;11.18;;;;;;;;;;5084286;28;20483;-64
2023/08/24 01:12:00;;;;;;;11.70;11.20;;;;;;;;;;5087375;28;20049;-62
2023/08/24 01:14:32;;;;;;;11.70;11.20;;;;;;;;;;5089241;28;20467;-62
2023/08/24 01:16:59;;;;;;;11.48;10.98;;;;;;;;;;5087176;28;20034;-62
2023/08/24 01:19:30;;;;;;;11.60;11.10;;;;;;;;;;5085529;28;20035;-62
2023/08/24 01:21:57;;;;;;;11.40;10.90;;;;;;;;;;5084383;28;20017;-62
2023/08/24 01:24:30;;;;;;;11.70;11.20;;;;;;;;;;5088855;28;20032;-63
2023/08/24 01:26:56;;;;;;;11.20;10.70;;;;;;;;;;5085857;28;20059;-62
2023/08/24 01:29:21;;;;;;;11.57;11.07;;;;;;;;;;5095125;28;20605;-63
2023/08/24 01:31:49;;;;;;;11.50;11.00;;;;;;;;;;5086271;28;20024;-62
2023/08/24 01:34:14;;;;;;;11.80;11.30;;;;;;;;;;5089587;28;20432;-63
2023/08/24 01:36:39;;;;;;;11.70;11.20;;;;;;;;;;5089645;28;20028;-62
2023/08/24 01:39:10;;;;;;;11.55;11.05;;;;;;;;;;5092813;28;20103;-61
2023/08/24 01:41:39;;;;;;;11.48;10.98;;;;;;;;;;5092484;28;20125;-61
2023/08/24 01:44:06;;;;;;;11.70;11.20;;;;;;;;;;5089647;28;20431;-62
2023/08/24 01:46:32;;;;;;;11.90;11.40;;;;;;;;;;5090641;28;20024;-60
2023/08/24 01:48:58;;;;;;;11.35;10.85;;;;;;;;;;5095379;28;20040;-62
2023/08/24 01:51:24;;;;;;;12.68;12.07;;;;;;;;;;5092181;28;20020;-62
2023/08/24 01:53:50;;;;;;;11.35;10.85;;;;;;;;;;5091163;28;20032;-62
2023/08/24 01:56:16;;;;;;;11.38;10.88;;;;;;;;;;5090098;28;20031;-61
2023/08/24 01:58:41;;;;;;;12.02;11.52;;;;;;;;;;5089490;28;20020;-62
2023/08/24 02:01:07;;;;;;;11.40;10.90;;;;;;;;;;5093149;28;20030;-62
2023/08/24 02:03:33;;;;;;;11.90;11.40;;;;;;;;;;5089824;28;21213;-63
2023/08/24 02:05:58;;;;;;;11.80;11.30;;;;;;;;;;5087999;28;20027;-62
2023/08/24 02:08:23;;;;;;;11.52;11.02;;;;;;;;;;5098425;28;20614;-61
2023/08/24 02:10:49;;;;;;;11.40;10.90;;;;;;;;;;5093351;28;20028;-62
2023/08/24 02:13:14;;;;;;;11.65;11.15;;;;;;;;;;5095353;28;20104;-62
2023/08/24 02:15:39;;;;;;;11.52;11.02;;;;;;;;;;5094661;28;20030;-62
2023/08/24 02:18:05;;;;;;;11.88;11.38;;;;;;;;;;5098295;28;20024;-62
2023/08/24 02:20:34;;;;;;;11.57;11.07;;;;;;;;;;5095780;28;20027;-62
2023/08/24 02:22:59;;;;;;;11.90;11.40;;;;;;;;;;5090557;28;20019;-63
2023/08/24 02:25:25;;;;;;;11.50;11.00;;;;;;;;;;5093431;28;20024;-62
2023/08/24 02:27:51;;;;;;;11.57;11.07;;;;;;;;;;5092086;28;20032;-63
2023/08/24 02:30:16;;;;;;;11.48;10.98;;;;;;;;;;5093069;28;20016;-62
2023/08/24 02:32:42;;;;;;;11.68;11.18;;;;;;;;;;5088384;28;20043;-61
2023/08/24 02:35:07;;;;;;;11.85;11.35;;;;;;;;;;5091377;28;20391;-63
2023/08/24 02:37:33;;;;;;;11.40;10.90;;;;;;;;;;5092745;28;20031;-61
2023/08/24 02:39:58;;;;;;;11.77;11.27;;;;;;;;;;5088645;28;20472;-61
2023/08/24 02:42:23;;;;;;;11.60;11.10;;;;;;;;;;5092348;28;20020;-62
2023/08/24 02:44:49;;;;;;;11.73;11.23;;;;;;;;;;5094620;28;20027;-62
2023/08/24 02:47:14;;;;;;;11.73;11.23;;;;;;;;;;5087240;28;20016;-62
2023/08/24 02:49:40;;;;;;;11.32;10.82;;;;;;;;;;5098917;28;20016;-63
2023/08/24 02:52:05;;;;;;;12.35;11.75;;;;;;;;;;5091094;28;20486;-62
2023/08/24 02:54:30;;;;;;;11.43;10.93;;;;;;;;;;5096472;28;20020;-62
2023/08/24 02:56:56;;;;;;;11.32;10.82;;;;;;;;;;5088200;28;20020;-62
2023/08/24 02:59:21;;;;;;;11.50;11.00;;;;;;;;;;5088160;28;20560;-62
2023/08/24 03:01:46;;;;;;;11.50;11.00;;;;;;;;;;5085072;28;20089;-62
2023/08/24 03:04:12;;;;;;;11.77;11.27;;;;;;;;;;5090042;28;20416;-63
2023/08/24 03:06:37;;;;;;;12.35;11.77;;;;;;;;;;5084430;28;20050;-62
2023/08/24 03:09:05;;;;;;;11.60;11.10;;;;;;;;;;5088472;28;20053;-62
2023/08/24 03:11:30;;;;;;;11.65;11.15;;;;;;;;;;5086739;28;20024;-62
2023/08/24 03:13:56;;;;;;;11.77;11.27;;;;;;;;;;5084205;28;20022;-61
2023/08/24 03:16:21;;;;;;;11.50;11.00;;;;;;;;;;5092337;28;20024;-63
2023/08/24 03:18:47;;;;;;;11.82;11.32;;;;;;;;;;5089912;28;20437;-62
2023/08/24 03:21:12;;;;;;;11.77;11.27;;;;;;;;;;5092353;28;20051;-63
2023/08/24 03:23:37;;;;;;;11.68;11.18;;;;;;;;;;5091894;28;20547;-63
2023/08/24 03:26:03;;;;;;;11.52;11.02;;;;;;;;;;5088087;28;20088;-62
2023/08/24 03:28:28;;;;;;;11.52;11.02;;;;;;;;;;5090674;28;20024;-63
2023/08/24 03:30:55;;;;;;;12.00;11.50;;;;;;;;;;5085426;28;20088;-61
2023/08/24 03:33:20;;;;;;;11.82;11.32;;;;;;;;;;5085818;28;20020;-64
2023/08/24 03:35:46;;;;;;;11.77;11.27;;;;;;;;;;5081145;28;20027;-62
2023/08/24 03:38:11;;;;;;;12.07;11.57;;;;;;;;;;5097643;28;20119;-62
2023/08/24 03:40:37;;;;;;;11.45;10.95;;;;;;;;;;5090974;28;20451;-63
2023/08/24 03:43:03;;;;;;;11.43;10.93;;;;;;;;;;5092606;28;20031;-63
2023/08/24 03:45:28;;;;;;;11.65;11.15;;;;;;;;;;5088647;28;20055;-62
2023/08/24 03:47:54;;;;;;;11.70;11.20;;;;;;;;;;5083752;28;20104;-62
2023/08/24 03:50:19;;;;;;;11.68;11.18;;;;;;;;;;5088999;28;20020;-64
2023/08/24 03:52:44;;;;;;;12.00;11.50;;;;;;;;;;5086160;28;20177;-63
2023/08/24 03:55:10;;;;;;;11.55;11.05;;;;;;;;;;5089784;28;20434;-62
2023/08/24 03:57:35;;;;;;;11.93;11.43;;;;;;;;;;5091247;28;20016;-61
2023/08/24 04:00:00;;;;;;;11.70;11.20;;;;;;;;;;5087880;28;20035;-63
2023/08/24 04:02:26;;;;;;;12.07;11.57;;;;;;;;;;5090472;28;20043;-63
2023/08/24 04:04:52;;;;;;;12.27;11.77;;;;;;;;;;5089500;28;20036;-62
2023/08/24 04:07:17;;;;;;;12.40;11.85;;;;;;;;;;5081452;28;20232;-62
2023/08/24 04:09:42;;;;;;;11.95;11.45;;;;;;;;;;5082727;28;20020;-63
2023/08/24 04:12:08;;;;;;;11.82;11.32;;;;;;;;;;5089360;28;20100;-62
2023/08/24 04:14:33;;;;;;;11.70;11.20;;;;;;;;;;5091235;28;20024;-63
2023/08/24 04:16:59;;;;;;;12.25;11.75;;;;;;;;;;5089472;28;20043;-63
2023/08/24 04:19:24;;;;;;;12.05;11.55;;;;;;;;;;5093096;28;20024;-63
2023/08/24 04:21:49;;;;;;;12.20;11.70;;;;;;;;;;5091843;28;20020;-63
2023/08/24 04:24:15;;;;;;;12.02;11.52;;;;;;;;;;5094029;28;20035;-63
2023/08/24 04:26:40;;;;;;;11.70;11.20;;;;;;;;;;5096178;28;20063;-63
2023/08/24 04:29:05;;;;;;;12.25;11.75;;;;;;;;;;5084414;28;20035;-63
2023/08/24 04:31:31;;;;;;;12.32;11.82;;;;;;;;;;5086115;28;20035;-63
2023/08/24 04:33:56;;;;;;;12.20;11.70;;;;;;;;;;5088139;28;20063;-65
2023/08/24 04:36:21;;;;;;;12.18;11.68;;;;;;;;;;5096097;28;20039;-63
2023/08/24 04:38:47;;;;;;;12.27;11.77;;;;;;;;;;5086985;28;20032;-63
2023/08/24 04:41:12;;;;;;;12.15;11.65;;;;;;;;;;5087967;28;20456;-64
2023/08/24 04:43:38;;;;;;;12.07;11.57;;;;;;;;;;5089372;28;20696;-64
2023/08/24 04:46:03;;;;;;;12.30;11.80;;;;;;;;;;5085639;28;20377;-63
2023/08/24 04:48:32;;;;;;;12.23;11.73;;;;;;;;;;5090334;28;20062;-64
2023/08/24 04:50:58;;;;;;;12.43;11.88;;;;;;;;;;5088867;28;20081;-64
2023/08/24 04:53:23;;;;;;;12.35;11.85;;;;;;;;;;5083844;28;20421;-64
2023/08/24 04:55:48;;;;;;;12.13;11.63;;;;;;;;;;5084453;28;20028;-64
2023/08/24 04:58:14;;;;;;;12.15;11.65;;;;;;;;;;5090967;28;20024;-65
2023/08/24 05:00:39;;;;;;;12.27;11.77;;;;;;;;;;5088294;28;20408;-64
2023/08/24 05:03:05;;;;;;;12.15;11.65;;;;;;;;;;5093730;28;20032;-64
2023/08/24 05:05:31;;;;;;;12.60;12.00;;;;;;;;;;5102270;28;20066;-64
2023/08/24 05:07:57;;;;;;;12.82;12.23;;;;;;;;;;5088042;28;20492;-64
2023/08/24 05:10:24;;;;;;;12.40;11.90;;;;;;;;;;5085436;28;20047;-63
2023/08/24 05:12:49;;;;;;;12.40;11.85;;;;;;;;;;5091061;28;20028;-65
2023/08/24 05:15:15;;;;;;;12.60;12.00;;;;;;;;;;5091888;28;20068;-64
2023/08/24 05:17:40;;;;;;;12.30;11.80;;;;;;;;;;5094958;28;20023;-63
2023/08/24 05:20:10;;;;;;;12.68;12.07;;;;;;;;;;5091609;28;20273;-62
2023/08/24 05:22:36;;;;;;;12.60;12.00;;;;;;;;;;5092060;28;20451;-64
2023/08/24 05:25:01;;;;;;;12.45;11.90;;;;;;;;;;5088711;28;20105;-64
2023/08/24 05:27:26;;;;;;;12.57;11.97;;;;;;;;;;5087480;28;20031;-65
2023/08/24 05:29:52;;;;;;;12.70;12.10;;;;;;;;;;5084319;28;20280;-65
2023/08/24 05:32:17;;;;;;;12.60;12.00;;;;;;;;;;5093530;28;20019;-65
2023/08/24 05:34:42;;;;;;;12.35;11.85;;;;;;;;;;5093253;28;20403;-65
2023/08/24 05:37:07;;;;;;;12.33;11.83;;;;;;;;;;5088564;28;20472;-64
2023/08/24 05:39:33;;;;;;;12.20;11.70;;;;;;;;;;5088921;28;20268;-66
2023/08/24 05:41:58;;;;;;;12.37;11.87;;;;;;;;;;5084702;28;20264;-66
2023/08/24 05:44:24;;;;;;;12.38;11.85;;;;;;;;;;5088835;28;20323;-64
2023/08/24 05:46:49;;;;;;;12.30;11.80;;;;;;;;;;5079857;28;20031;-66
2023/08/24 05:49:14;;;;;;;12.65;12.05;;;;;;;;;;5084742;28;20067;-65
2023/08/24 05:51:40;;;;;;;12.50;11.95;;;;;;;;;;5088684;28;20027;-65
2023/08/24 05:54:05;;;;;;;12.80;12.20;;;;;;;;;;5085737;28;20035;-67
2023/08/24 05:56:31;;;;;;;12.33;11.83;;;;;;;;;;5084066;28;20509;-65
2023/08/24 05:58:57;;;;;;;12.77;12.18;;;;;;;;;;5084597;28;20352;-66
2023/08/24 06:01:23;;;;;;;12.63;12.02;;;;;;;;;;5085360;28;20031;-65
2023/08/24 06:03:49;;;;;;;12.27;11.77;;;;;;;;;;5082447;28;20049;-66
2023/08/24 06:06:14;;;;;;;12.60;12.00;;;;;;;;;;5086173;28;20065;-66
2023/08/24 06:08:39;;;;;;;12.52;11.95;;;;;;;;;;5089703;28;20077;-66
2023/08/24 06:11:05;;;;;;;12.40;11.88;;;;;;;;;;5085350;28;20460;-66
2023/08/24 06:13:30;;;;;;;12.82;12.23;;;;;;;;;;5083548;28;20542;-66
2023/08/24 06:15:56;;;;;;;13.00;12.40;;;;;;;;;;5082587;28;20514;-67
2023/08/24 06:18:22;;;;;;;12.67;12.07;;;;;;;;;;5087868;28;20024;-66
2023/08/24 06:20:49;;;;;;;12.35;11.82;;;;;;;;;;5086409;28;20038;-65
2023/08/24 06:23:14;;;;;;;12.55;11.95;;;;;;;;;;5084424;28;20024;-66
2023/08/24 06:25:40;;;;;;;12.25;11.75;;;;;;;;;;5087644;28;20027;-65
2023/08/24 06:28:05;;;;;;;12.30;11.80;;;;;;;;;;5083481;28;20024;-65
2023/08/24 06:30:36;;;;;;;12.55;11.95;;;;;;;;;;5087591;28;20275;-66
2023/08/24 06:33:02;;;;;;;12.57;11.98;;;;;;;;;;5085674;28;20020;-67
2023/08/24 06:35:28;;;;;;;12.73;12.13;;;;;;;;;;5078447;28;20031;-71
2023/08/24 06:37:53;;;;;;;12.27;11.77;;;;;;;;;;5080714;28;20561;-65
2023/08/24 06:40:19;;;;;;;12.68;12.07;;;;;;;;;;5081369;28;20268;-69
2023/08/24 06:42:44;;;;;;;12.43;11.90;;;;;;;;;;5086658;28;20437;-70
2023/08/24 06:45:10;;;;;;;12.43;11.93;;;;;;;;;;5090464;28;20115;-71
2023/08/24 06:47:35;;;;;;;12.60;12.00;;;;;;;;;;5094599;28;20291;-69
2023/08/24 06:50:01;;;;;;;11.85;11.35;;;;;;;;;;5074875;28;20024;-69
2023/08/24 06:52:26;;;;;;;12.07;11.57;;;;;;;;;;5091894;28;20089;-70
2023/08/24 06:54:54;;;;;;;11.95;11.45;;;;;;;;;;5087747;28;20816;-70
2023/08/24 06:57:20;;;;;;;11.98;11.48;;;;;;;;;;5092156;28;20032;-70
2023/08/24 06:59:45;;;;;;;12.07;11.57;;;;;;;;;;5083365;28;20066;-67
2023/08/24 07:02:10;;;;;;;12.03;11.53;;;;;;;;;;5076917;28;20024;-64
2023/08/24 07:04:36;;;;;;;12.13;11.63;;;;;;;;;;5086698;28;20507;-67
2023/08/24 07:07:02;;;;;;;11.98;11.48;;;;;;;;;;5082380;28;20035;-66
2023/08/24 07:09:28;;;;;;;12.00;11.50;;;;;;;;;;5082778;28;20408;-67
2023/08/24 07:11:53;;;;;;;12.20;11.70;;;;;;;;;;5082976;28;20036;-66
2023/08/24 07:14:20;;;;;;;11.80;11.30;;;;;;;;;;5086285;28;20670;-66
2023/08/24 07:16:46;;;;;;;11.77;11.27;;;;;;;;;;5091185;28;20070;-67
2023/08/24 07:19:11;;;;;;;12.00;11.50;;;;;;;;;;5069115;28;20080;-66
2023/08/24 07:21:37;;;;;;;12.00;11.50;;;;;;;;;;5088597;28;20182;-66
2023/08/24 07:24:02;;;;;;;12.27;11.77;;;;;;;;;;5082338;28;20024;-66
2023/08/24 07:26:29;;;;;;;12.15;11.65;;;;;;;;;;5085960;28;20548;-66
2023/08/24 07:28:54;;;;;;;12.68;12.07;;;;;;;;;;5083946;28;20483;-67
2023/08/24 07:31:20;;;;;;;12.67;12.07;;;;;;;;;;5081178;28;20035;-66
2023/08/24 07:33:45;;;;;;;12.07;11.57;;;;;;;;;;5081289;28;20273;-64
2023/08/24 07:36:10;;;;;;;12.43;11.87;;;;;;;;;;5082299;28;20616;-64
2023/08/24 07:38:36;;;;;;;12.17;11.67;;;;;;;;;;5084148;28;20204;-65
2023/08/24 07:41:01;;;;;;;12.48;11.90;;;;;;;;;;5087294;28;20424;-66
2023/08/24 07:43:26;;;;;;;12.17;11.67;;;;;;;;;;5080260;28;20016;-66
2023/08/24 07:45:52;;;;;;;12.07;11.57;;;;;;;;;;5084767;28;20107;-66
2023/08/24 07:48:17;;;;;;;12.23;11.73;;;;;;;;;;5084508;28;20042;-65
2023/08/24 07:50:43;;;;;;;12.17;11.67;;;;;;;;;;5083936;28;20772;-65
2023/08/24 07:53:08;;;;;;;12.27;11.77;;;;;;;;;;5086476;28;20028;-65
2023/08/24 07:55:34;;;;;;;12.32;11.82;;;;;;;;;;5083506;28;20104;-65
2023/08/24 07:57:59;;;;;;;12.23;11.73;;;;;;;;;;5085054;28;20100;-65
2023/08/24 08:00:24;;;;;;;11.67;11.17;;;;;;;;;;5085565;28;20715;-66
2023/08/24 08:02:50;;;;;;;12.23;11.73;;;;;;;;;;5085452;28;20047;-65
2023/08/24 08:05:16;;;;;;;12.10;11.60;;;;;;;;;;5067684;28;20047;-64
2023/08/24 08:07:41;;;;;;;11.82;11.32;;;;;;;;;;5044799;28;20024;-66
2023/08/24 08:10:06;;;;;;;12.27;11.77;;;;;;;;;;5057714;28;20047;-65
2023/08/24 08:12:32;;;;;;;12.13;11.63;;;;;;;;;;5043034;28;20024;-66
2023/08/24 08:14:57;;;;;;;12.65;12.05;;;;;;;;;;5056566;28;20020;-66
2023/08/24 08:17:23;;;;;;;11.90;11.40;;;;;;;;;;5042663;28;20078;-65
2023/08/24 08:19:48;;;;;;;11.98;11.48;;;;;;;;;;5059229;28;20347;-65
2023/08/24 08:22:14;;;;;;;12.40;11.85;;;;;;;;;;5056332;28;20035;-66
2023/08/24 08:24:39;;;;;;;12.23;11.73;;;;;;;;;;5057457;28;20077;-66
2023/08/24 08:27:04;;;;;;;12.10;11.60;;;;;;;;;;5058674;28;20145;-67
2023/08/24 08:29:29;;;;;;;12.10;11.60;;;;;;;;;;5059484;28;20031;-66
2023/08/24 08:31:55;;;;;;;12.00;11.50;;;;;;;;;;5059086;28;20872;-67
2023/08/24 08:34:20;;;;;;;11.93;11.43;;;;;;;;;;5057254;28;20270;-66
2023/08/24 08:36:45;;;;;;;12.30;11.80;;;;;;;;;;5060580;28;20265;-66
2023/08/24 08:39:11;;;;;;;12.77;12.18;;;;;;;;;;5060993;28;20472;-67
2023/08/24 08:41:44;;;;;;;12.05;11.55;;;;;;;;;;5055303;28;20479;-67
2023/08/24 08:44:11;;;;;;;12.68;12.07;;;;;;;;;;5053213;28;20063;-65
2023/08/24 08:46:38;;;;;;;12.27;11.77;;;;;;;;;;5058506;28;20032;-64
2023/08/24 08:49:03;;;;;;;12.30;11.80;;;;;;;;;;5066002;28;20033;-65
2023/08/24 08:51:29;;;;;;;12.27;11.77;;;;;;;;;;5068393;28;20043;-64
2023/08/24 08:53:54;;;;;;;11.98;11.48;;;;;;;;;;5058689;28;20063;-64
2023/08/24 08:56:20;;;;;;;12.02;11.52;;;;;;;;;;5065293;28;20432;-64
2023/08/24 08:58:46;;;;;;;12.15;11.65;;;;;;;;;;5058714;28;20436;-64
2023/08/24 09:01:11;;;;;;;12.35;11.85;;;;;;;;;;5059707;28;20024;-64
2023/08/24 09:03:39;;;;;;;11.90;11.40;;;;;;;;;;5065003;28;20090;-63
2023/08/24 09:06:04;;;;;;;12.18;11.68;;;;;;;;;;5058331;28;20029;-65
2023/08/24 09:08:30;;;;;;;11.93;11.43;;;;;;;;;;5066944;28;20043;-65
2023/08/24 09:10:55;;;;;;;12.05;11.55;;;;;;;;;;5050668;28;20116;-64
2023/08/24 09:13:21;;;;;;;12.73;12.13;;;;;;;;;;5059956;28;20804;-64
2023/08/24 09:15:46;;;;;;;11.93;11.43;;;;;;;;;;5062848;28;20043;-64
2023/08/24 09:18:11;;;;;;;11.90;11.40;;;;;;;;;;5062897;28;20324;-62
2023/08/24 09:20:37;;;;;;;11.90;11.40;;;;;;;;;;5064925;28;20039;-64
2023/08/24 09:23:02;;;;;;;12.13;11.63;;;;;;;;;;5061622;28;20329;-64
2023/08/24 09:25:28;;;;;;;12.50;11.90;;;;;;;;;;5058305;28;20082;-64
2023/08/24 09:28:03;;;;;;;12.10;11.60;;;;;;;;;;5064568;28;20028;-63
2023/08/24 09:30:32;;;;;;;12.07;11.57;;;;;;;;;;5058872;28;20025;-64
2023/08/24 09:33:18;;;;;;;11.60;11.10;;;;;;;;;;5053425;28;20032;-64
2023/08/24 09:35:43;;;;;;;11.95;11.45;;;;;;;;;;5062250;28;20384;-63
2023/08/24 09:38:18;;;;;;;12.13;11.63;;;;;;;;;;5057502;28;20042;-64
2023/08/24 09:40:47;;;;;;;12.35;11.85;;;;;;;;;;5060795;28;20035;-64
2023/08/24 09:43:13;;;;;;;11.93;11.43;;;;;;;;;;5062951;28;20103;-64
2023/08/24 09:45:59;;;;;;;11.57;11.07;;;;;;;;;;5060407;28;20113;-64
2023/08/24 09:48:25;;;;;;;12.07;11.57;;;;;;;;;;5060304;28;20063;-64
2023/08/24 09:50:51;;;;;;;12.40;11.90;;;;;;;;;;5061850;28;20052;-63
2023/08/24 09:53:21;;;;;;;12.00;11.50;;;;;;;;;;5065540;28;20645;-63
2023/08/24 09:55:59;;;;;;;11.95;11.45;;;;;;;;;;5067336;28;20090;-64
2023/08/24 09:58:24;;;;;;;12.50;11.90;;;;;;;;;;5054360;28;20025;-63
2023/08/24 10:00:50;;;;;;;12.02;11.52;;;;;;;;;;5062537;28;20404;-64
2023/08/24 10:03:20;;;;;;;11.95;11.45;;;;;;;;;;5065045;28;20028;-63
2023/08/24 10:05:45;;;;;;;12.20;11.70;;;;;;;;;;5060845;28;20576;-65
2023/08/24 10:08:10;;;;;;;12.50;11.93;;;;;;;;;;5059810;28;20131;-63
2023/08/24 10:10:37;;;;;;;12.32;11.82;;;;;;;;;;5064109;28;20017;-64
2023/08/24 10:13:08;;;;;;;11.98;11.48;;;;;;;;;;5060271;28;20043;-63
2023/08/24 10:15:34;;;;;;;12.05;11.55;;;;;;;;;;5063174;28;20045;-64
2023/08/24 10:18:00;;;;;;;12.20;11.70;;;;;;;;;;5064202;28;20103;-64
2023/08/24 10:20:26;;;;;;;12.20;11.70;;;;;;;;;;5060887;28;20633;-64
2023/08/24 10:22:51;;;;;;;11.90;11.40;;;;;;;;;;5060138;28;20029;-65
2023/08/24 10:25:18;;;;;;;12.15;11.65;;;;;;;;;;5058769;28;20028;-66
2023/08/24 10:27:45;;;;;;;12.15;11.65;;;;;;;;;;5056663;28;20155;-65
2023/08/24 10:30:12;;;;;;;12.20;11.70;;;;;;;;;;5060755;28;20055;-66
2023/08/24 10:32:37;;;;;;;12.15;11.65;;;;;;;;;;5058716;28;20032;-67
2023/08/24 10:35:03;;;;;;;12.20;11.70;;;;;;;;;;5061942;28;20043;-63
2023/08/24 10:37:28;;;;;;;12.25;11.75;;;;;;;;;;5059997;28;20160;-63
2023/08/24 10:39:53;;;;;;;12.23;11.73;;;;;;;;;;5062201;28;20020;-63
2023/08/24 10:42:20;;;;;;;12.05;11.55;;;;;;;;;;5062614;28;20029;-62
2023/08/24 10:44:46;;;;;;;11.93;11.43;;;;;;;;;;5060016;28;20024;-63
2023/08/24 10:47:16;;;;;;;11.88;11.38;;;;;;;;;;5064052;28;20035;-62
2023/08/24 10:49:56;;;;;;;11.80;11.30;;;;;;;;;;5062463;28;20024;-63
2023/08/24 10:52:22;;;;;;;11.90;11.40;;;;;;;;;;5057653;28;20044;-62
2023/08/24 10:54:48;;;;;;;11.73;11.23;;;;;;;;;;5059282;28;20016;-63
2023/08/24 10:57:37;;;;;;;12.18;11.68;;;;;;;;;;5060915;28;20025;-62
2023/08/24 11:00:05;;;;;;;12.05;11.55;;;;;;;;;;5047865;28;20492;-64
2023/08/24 11:02:31;;;;;;;12.20;11.70;;;;;;;;;;5059636;28;20084;-64
2023/08/24 11:05:06;;;;;;;11.93;11.43;;;;;;;;;;5056129;28;20508;-63
2023/08/24 11:07:31;;;;;;;12.13;11.63;;;;;;;;;;5059579;28;20032;-63
2023/08/24 11:09:56;;;;;;;12.00;11.50;;;;;;;;;;5056732;28;20032;-63
2023/08/24 11:12:22;;;;;;;12.18;11.68;;;;;;;;;;5055365;28;20030;-63
2023/08/24 11:14:58;;;;;;;12.10;11.60;;;;;;;;;;5060353;28;20021;-67
2023/08/24 11:17:24;;;;;;;11.93;11.43;;;;;;;;;;5061538;28;20101;-67
2023/08/24 11:19:50;;;;;;;11.88;11.38;;;;;;;;;;5061277;28;20115;-68
2023/08/24 11:22:17;;;;;;;11.77;11.27;;;;;;;;;;5063169;28;20033;-66
2023/08/24 11:24:42;;;;;;;11.48;10.98;;;;;;;;;;5066154;28;20082;-67
2023/08/24 11:27:08;;;;;;;12.30;11.80;;;;;;;;;;5059243;28;20119;-67
2023/08/24 11:29:35;;;;;;;11.98;11.48;;;;;;;;;;5065095;28;20264;-67
2023/08/24 11:32:00;;;;;;;11.88;11.38;;;;;;;;;;5063853;28;20017;-67
2023/08/24 11:34:26;;;;;;;11.80;11.30;;;;;;;;;;5060135;28;20120;-66
2023/08/24 11:36:51;;;;;;;11.77;11.27;;;;;;;;;;5061487;28;20029;-67
2023/08/24 11:39:19;;;;;;;11.60;11.10;;;;;;;;;;5061706;28;20201;-68
2023/08/24 11:41:45;;;;;;;11.85;11.35;;;;;;;;;;5064584;28;20120;-67
2023/08/24 11:44:11;;;;;;;12.27;11.77;;;;;;;;;;5061858;28;20123;-67
2023/08/24 11:46:36;;;;;;;12.05;11.55;;;;;;;;;;5058144;28;20078;-66
2023/08/24 11:49:04;;;;;;;12.18;11.68;;;;;;;;;;5058035;28;20112;-67
2023/08/24 11:51:32;;;;;;;11.82;11.32;;;;;;;;;;5060319;28;20505;-67
2023/08/24 11:53:58;;;;;;;11.98;11.48;;;;;;;;;;5061935;28;20036;-65
2023/08/24 11:56:23;;;;;;;12.15;11.65;;;;;;;;;;5056453;28;20119;-65
2023/08/24 11:58:52;;;;;;;11.90;11.40;;;;;;;;;;5062611;28;20132;-68
2023/08/24 12:01:18;;;;;;;12.10;11.60;;;;;;;;;;5058981;28;20028;-69
2023/08/24 12:03:43;;;;;;;12.02;11.52;;;;;;;;;;5062495;28;20102;-66
2023/08/24 12:06:16;;;;;;;11.73;11.23;;;;;;;;;;5065118;28;20615;-67
2023/08/24 12:08:42;;;;;;;11.95;11.45;;;;;;;;;;5061073;28;20021;-67
2023/08/24 12:11:20;;;;;;;11.90;11.40;;;;;;;;;;5061930;28;20070;-62
2023/08/24 12:13:50;;;;;;;11.85;11.35;;;;;;;;;;5060526;28;20094;-66
2023/08/24 12:16:16;;;;;;;11.75;11.25;;;;;;;;;;5060617;28;20035;-65
2023/08/24 12:18:52;;;;;;;11.85;11.35;;;;;;;;;;5061309;28;20029;-65
2023/08/24 12:21:19;;;;;;;11.65;11.15;;;;;;;;;;5058195;28;20135;-67
2023/08/24 12:23:44;;;;;;;11.82;11.32;;;;;;;;;;5061086;28;20028;-67
2023/08/24 12:26:17;;;;;;;11.70;11.20;;;;;;;;;;5059387;28;20025;-67
2023/08/24 12:28:42;;;;;;;12.05;11.55;;;;;;;;;;5060130;28;20324;-66
2023/08/24 12:31:07;;;;;;;11.80;11.30;;;;;;;;;;5060786;28;20483;-66
2023/08/24 12:33:32;;;;;;;11.83;11.33;;;;;;;;;;5060800;28;20024;-65
2023/08/24 12:36:02;;;;;;;12.20;11.70;;;;;;;;;;5061289;28;20292;-65
2023/08/24 12:38:27;;;;;;;12.27;11.77;;;;;;;;;;5059364;28;20021;-66
2023/08/24 12:40:53;;;;;;;11.70;11.20;;;;;;;;;;5063301;28;20071;-67
2023/08/24 12:43:18;;;;;;;12.02;11.52;;;;;;;;;;5045550;28;20111;-66
2023/08/24 12:45:43;;;;;;;11.98;11.48;;;;;;;;;;5064108;28;20455;-66
2023/08/24 12:48:09;;;;;;;11.73;11.23;;;;;;;;;;5061977;28;20090;-67
2023/08/24 12:50:35;;;;;;;11.82;11.32;;;;;;;;;;5062149;28;20055;-66
2023/08/24 12:53:00;;;;;;;11.55;11.05;;;;;;;;;;5060874;28;20429;-67
2023/08/24 12:55:27;;;;;;;11.50;11.00;;;;;;;;;;5059903;28;20032;-65
2023/08/24 12:57:55;;;;;;;11.60;11.10;;;;;;;;;;5061284;28;20085;-64
2023/08/24 13:00:21;;;;;;;12.07;11.57;;;;;;;;;;5060374;28;20024;-65
2023/08/24 13:02:47;;;;;;;12.25;11.75;;;;;;;;;;5062507;28;20047;-65
2023/08/24 13:05:13;;;;;;;12.07;11.57;;;;;;;;;;5058305;28;20064;-65
2023/08/24 13:07:38;;;;;;;12.02;11.52;;;;;;;;;;5055777;28;20056;-66
2023/08/24 13:10:04;;;;;;;11.95;11.45;;;;;;;;;;5055669;28;20057;-65
2023/08/24 13:12:30;;;;;;;12.30;11.80;;;;;;;;;;5058557;28;20104;-65
2023/08/24 13:14:55;;;;;;;11.77;11.27;;;;;;;;;;5056533;28;20673;-65
2023/08/24 13:17:21;;;;;;;11.95;11.45;;;;;;;;;;5054598;28;20043;-65
2023/08/24 13:19:48;;;;;;;11.73;11.23;;;;;;;;;;5056022;28;20041;-65
2023/08/24 13:22:14;;;;;;;11.98;11.48;;;;;;;;;;5050020;28;20028;-66
2023/08/24 13:24:39;;;;;;;11.75;11.25;;;;;;;;;;5061416;28;20024;-66
2023/08/24 13:27:10;;;;;;;12.10;11.60;;;;;;;;;;5057308;28;20025;-64
2023/08/24 13:29:35;;;;;;;11.90;11.40;;;;;;;;;;5062226;28;20060;-66
2023/08/24 13:32:00;;;;;;;11.73;11.23;;;;;;;;;;5057915;28;20844;-66
2023/08/24 13:34:25;;;;;;;11.97;11.47;;;;;;;;;;5058354;28;20265;-67
2023/08/24 13:36:51;;;;;;;11.90;11.40;;;;;;;;;;5062890;28;20506;-68
2023/08/24 13:39:17;;;;;;;12.10;11.60;;;;;;;;;;5059515;28;20036;-66
2023/08/24 13:41:42;;;;;;;12.20;11.70;;;;;;;;;;5062137;28;20270;-65
2023/08/24 13:44:07;;;;;;;11.60;11.10;;;;;;;;;;5064246;28;20035;-69
2023/08/24 13:46:33;;;;;;;11.98;11.48;;;;;;;;;;5055410;28;20414;-67
2023/08/24 13:48:58;;;;;;;12.00;11.50;;;;;;;;;;5062828;28;20107;-66
2023/08/24 13:51:23;;;;;;;12.00;11.50;;;;;;;;;;5065067;28;20016;-67
2023/08/24 13:53:48;;;;;;;11.47;10.97;;;;;;;;;;5064686;28;20032;-69
2023/08/24 13:56:14;;;;;;;11.67;11.17;;;;;;;;;;5061825;28;20704;-68
2023/08/24 13:58:39;;;;;;;11.67;11.17;;;;;;;;;;5062228;28;20270;-67
2023/08/24 14:01:04;;;;;;;11.63;11.13;;;;;;;;;;5063534;28;20108;-68
2023/08/24 14:03:30;;;;;;;12.07;11.57;;;;;;;;;;5050201;28;20032;-67
2023/08/24 14:05:55;;;;;;;11.80;11.30;;;;;;;;;;5065179;28;20089;-67
2023/08/24 14:08:21;;;;;;;11.50;11.00;;;;;;;;;;5067364;28;20017;-67
2023/08/24 14:10:48;;;;;;;12.00;11.50;;;;;;;;;;5058681;28;20017;-68